createdAt,value
2018-06-01T00:01:50.646Z,100283.97
2018-06-01T00:04:18.036Z,100294.37
2018-06-01T00:06:45.419Z,100323.05
2018-06-01T00:09:17.632Z,100342.64
2018-06-01T00:11:45.027Z,100372.20
2018-06-01T00:14:12.417Z,100403.34
2018-06-01T00:16:39.801Z,100409.37
2018-06-01T00:19:07.193Z,100387.35
2018-06-01T00:21:34.579Z,100363.34
2018-06-01T00:24:01.977Z,100413.13
2018-06-01T00:26:29.380Z,100473.78
2018-06-01T00:28:56.752Z,100463.17
2018-06-01T00:31:24.127Z,100456.69
2018-06-01T00:33:51.515Z,100470.84
2018-06-01T00:36:18.900Z,100482.60
2018-06-01T00:38:46.301Z,100520.75
2018-06-01T00:41:13.675Z,100537.12
2018-06-01T00:43:41.063Z,100549.14
2018-06-01T00:46:08.453Z,100552.06
2018-06-01T00:48:35.848Z,100543.91
2018-06-01T00:51:03.253Z,100544.88
2018-06-01T00:53:30.647Z,100552.81
2018-06-01T00:55:58.031Z,100557.09
2018-06-01T00:58:25.408Z,100548.56
2018-06-01T01:00:52.799Z,100550.06
2018-06-01T01:03:20.193Z,100563.86
2018-06-01T01:05:47.584Z,100572.16
2018-06-01T01:08:14.967Z,100573.92
2018-06-01T01:10:42.346Z,100564.66
2018-06-01T01:13:09.733Z,100563.36
2018-06-01T01:15:37.117Z,100556.64
2018-06-01T01:18:04.500Z,100530.12
2018-06-01T01:20:31.890Z,100521.13
2018-06-01T01:22:59.269Z,100515.58
2018-06-01T01:25:26.655Z,100518.55
2018-06-01T01:27:54.059Z,100506.58
2018-06-01T01:30:21.449Z,100500.31
2018-06-01T01:32:48.831Z,100498.48
2018-06-01T01:35:16.217Z,100497.81
2018-06-01T01:37:43.782Z,100495.47
2018-06-01T01:40:11.157Z,100497.81
2018-06-01T01:42:38.541Z,100488.17
2018-06-01T01:45:05.936Z,100476.19
2018-06-01T01:47:33.305Z,100473.64
2018-06-01T01:50:00.698Z,100463.56
2018-06-01T01:52:28.074Z,100452.95
2018-06-01T01:54:55.457Z,100449.45
2018-06-01T01:57:22.836Z,100462.09
2018-06-01T01:59:50.226Z,100473.03
2018-06-01T02:02:17.608Z,100473.40
2018-06-01T02:04:44.998Z,100457.45
2018-06-01T02:07:12.371Z,100450.66
2018-06-01T02:09:39.765Z,100452.77
2018-06-01T02:12:07.153Z,100441.16
2018-06-01T02:14:34.540Z,100428.72
2018-06-01T02:17:01.928Z,100432.50
2018-06-01T02:19:29.320Z,100420.74
2018-06-01T02:21:56.700Z,100427.73
2018-06-01T02:24:24.079Z,100426.33
2018-06-01T02:26:51.466Z,100418.33
2018-06-01T02:29:18.844Z,100421.45
2018-06-01T02:31:46.257Z,100421.81
2018-06-01T02:34:13.615Z,100432.73
2018-06-01T02:36:40.988Z,100440.74
2018-06-01T02:39:08.378Z,100436.05
2018-06-01T02:41:35.766Z,100432.63
2018-06-01T02:44:03.152Z,100439.06
2018-06-01T02:46:30.532Z,100435.97
2018-06-01T02:48:57.924Z,100443.09
2018-06-01T02:51:25.309Z,100440.50
2018-06-01T02:53:52.688Z,100434.30
2018-06-01T02:56:20.098Z,100436.28
2018-06-01T02:58:47.495Z,100437.37
2018-06-01T03:01:14.880Z,100434.19
2018-06-01T03:03:42.247Z,100429.04
2018-06-01T03:06:09.635Z,100437.99
2018-06-01T03:08:37.009Z,100430.95
2018-06-01T03:11:04.395Z,100427.47
2018-06-01T03:13:31.773Z,100428.49
2018-06-01T03:15:59.173Z,100418.69
2018-06-01T03:18:26.543Z,100420.15
2018-06-01T03:20:53.926Z,100421.53
2018-06-01T03:23:21.319Z,100426.97
2018-06-01T03:25:48.704Z,100421.25
2018-06-01T03:28:16.085Z,100433.43
2018-06-01T03:30:43.479Z,100435.17
2018-06-01T03:33:10.865Z,100437.06
2018-06-01T03:35:38.252Z,100434.76
2018-06-01T03:38:05.683Z,100446.22
2018-06-01T03:40:33.061Z,100443.45
2018-06-01T03:43:00.449Z,100446.77
2018-06-01T03:45:27.847Z,100446.72
2018-06-01T03:47:55.212Z,100460.41
2018-06-01T03:50:22.604Z,100471.14
2018-06-01T03:52:49.992Z,100483.39
2018-06-01T03:55:17.383Z,100487.46
2018-06-01T03:57:44.760Z,100500.34
2018-06-01T04:00:12.181Z,100501.46
2018-06-01T04:02:39.572Z,100506.34
2018-06-01T04:05:06.968Z,100514.32
2018-06-01T04:07:34.369Z,100525.03
2018-06-01T04:10:01.757Z,100535.12
2018-06-01T04:12:29.143Z,100535.27
2018-06-01T04:14:56.537Z,100547.98
2018-06-01T04:17:23.912Z,100551.50
2018-06-01T04:19:51.310Z,100552.07
2018-06-01T04:22:18.687Z,100556.21
2018-06-01T04:24:46.073Z,100550.42
2018-06-01T04:27:13.450Z,100554.56
2018-06-01T04:29:40.838Z,100561.14
2018-06-01T04:32:08.219Z,100558.34
2018-06-01T04:34:35.603Z,100569.27
2018-06-01T04:37:02.996Z,100567.68
2018-06-01T04:42:16.288Z,100584.38
2018-06-01T04:44:43.687Z,100588.63
2018-06-01T04:47:11.069Z,100591.20
2018-06-01T04:49:38.456Z,100592.20
2018-06-01T04:52:05.838Z,100599.33
2018-06-01T04:54:33.245Z,100600.06
2018-06-01T04:57:00.626Z,100599.65
2018-06-01T04:59:28.018Z,100593.86
2018-06-01T05:01:55.412Z,100605.66
2018-06-01T05:04:22.795Z,100599.73
2018-06-01T05:06:50.183Z,100598.97
2018-06-01T05:09:17.571Z,100609.57
2018-06-01T05:11:44.956Z,100607.44
2018-06-01T05:14:12.345Z,100615.03
2018-06-01T05:16:39.779Z,100612.22
2018-06-01T05:19:07.136Z,100613.06
2018-06-01T05:21:34.536Z,100616.45
2018-06-01T05:24:01.913Z,100619.08
2018-06-01T05:26:29.310Z,100620.97
2018-06-01T05:28:56.708Z,100627.17
2018-06-01T05:31:24.098Z,100630.48
2018-06-01T05:33:51.471Z,100628.21
2018-06-01T05:36:18.875Z,100636.01
2018-06-01T05:38:46.249Z,100636.58
2018-06-01T05:41:13.644Z,100633.67
2018-06-01T05:43:41.029Z,100642.05
2018-06-01T05:46:08.422Z,100638.13
2018-06-01T05:48:35.811Z,100636.87
2018-06-01T05:51:03.207Z,100639.40
2018-06-01T05:53:30.589Z,100635.28
2018-06-01T05:55:57.977Z,100636.83
2018-06-01T05:58:25.359Z,100633.79
2018-06-01T06:00:52.744Z,100635.73
2018-06-01T06:03:20.140Z,100642.89
2018-06-01T06:05:47.524Z,100641.70
2018-06-01T06:08:14.926Z,100644.36
2018-06-01T06:10:42.310Z,100642.62
2018-06-01T06:13:09.688Z,100646.35
2018-06-01T06:15:37.067Z,100640.77
2018-06-01T06:18:04.464Z,100647.37
2018-06-01T06:20:31.847Z,100647.79
2018-06-01T06:22:59.241Z,100650.20
2018-06-01T06:25:26.628Z,100654.30
2018-06-01T06:27:54.025Z,100654.86
2018-06-01T06:30:21.406Z,100657.55
2018-06-01T06:32:48.791Z,100651.17
2018-06-01T06:35:16.179Z,100657.64
2018-06-01T06:37:43.575Z,100659.69
2018-06-01T06:40:10.945Z,100652.20
2018-06-01T06:42:38.352Z,100655.92
2018-06-01T06:45:05.741Z,100660.18
2018-06-01T06:47:33.137Z,100667.13
2018-06-01T06:50:00.512Z,100658.59
2018-06-01T06:52:27.911Z,100665.95
2018-06-01T06:54:55.304Z,100659.73
2018-06-01T06:57:22.691Z,100662.40
2018-06-01T06:59:50.072Z,100657.34
2018-06-01T07:02:17.474Z,100663.05
2018-06-01T07:04:44.878Z,100661.30
2018-06-01T07:07:12.264Z,100649.02
2018-06-01T07:09:39.665Z,100650.31
2018-06-01T07:12:07.050Z,100653.17
2018-06-01T07:14:34.437Z,100651.47
2018-06-01T07:17:01.829Z,100651.72
2018-06-01T07:19:29.205Z,100655.17
2018-06-01T07:21:56.590Z,100660.42
2018-06-01T07:24:23.976Z,100655.97
2018-06-01T07:26:51.356Z,100659.31
2018-06-01T07:29:18.744Z,100653.27
2018-06-01T07:31:46.159Z,100657.44
2018-06-01T07:34:13.540Z,100656.64
2018-06-01T07:36:40.915Z,100650.42
2018-06-01T07:39:08.313Z,100647.09
2018-06-01T07:41:35.687Z,100648.95
2018-06-01T07:44:03.079Z,100641.84
2018-06-01T07:46:30.475Z,100641.05
2018-06-01T07:48:57.869Z,100643.95
2018-06-01T07:51:25.259Z,100646.97
2018-06-01T07:53:52.639Z,100650.44
2018-06-01T07:56:20.018Z,100650.58
2018-06-01T07:58:47.412Z,100662.31
2018-06-01T08:01:14.821Z,100656.53
2018-06-01T08:03:42.194Z,100659.94
2018-06-01T08:06:09.583Z,100658.70
2018-06-01T08:08:36.968Z,100665.11
2018-06-01T08:11:04.349Z,100662.28
2018-06-01T08:13:31.732Z,100656.48
2018-06-01T08:15:59.121Z,100655.84
2018-06-01T08:18:26.517Z,100655.70
2018-06-01T08:20:53.891Z,100656.77
2018-06-01T08:23:21.289Z,100661.69
2018-06-01T08:25:48.674Z,100661.17
2018-06-01T08:28:16.039Z,100659.74
2018-06-01T08:30:43.528Z,100659.59
2018-06-01T08:33:10.993Z,100659.52
2018-06-01T08:35:38.476Z,100652.55
2018-06-01T08:38:05.939Z,100656.91
2018-06-01T08:40:33.417Z,100665.33
2018-06-01T08:43:00.887Z,100658.25
2018-06-01T08:45:28.364Z,100671.40
2018-06-01T08:47:55.827Z,100673.44
2018-06-01T08:50:23.452Z,100669.88
2018-06-01T08:52:50.918Z,100676.83
2018-06-01T08:55:18.391Z,100671.84
2018-06-01T08:57:45.861Z,100666.30
2018-06-01T09:00:13.366Z,100666.81
2018-06-01T09:02:40.854Z,100672.27
2018-06-01T09:05:08.319Z,100671.95
2018-06-01T09:07:35.782Z,100661.23
2018-06-01T09:10:03.268Z,100671.53
2018-06-01T09:12:30.734Z,100667.24
2018-06-01T09:14:58.211Z,100675.30
2018-06-01T09:17:25.685Z,100680.58
2018-06-01T09:19:53.147Z,100681.88
2018-06-01T09:22:20.613Z,100689.45
2018-06-01T09:24:48.084Z,100687.20
2018-06-01T09:27:15.548Z,100690.63
2018-06-01T09:29:43.019Z,100692.50
2018-06-01T09:32:10.508Z,100692.55
2018-06-01T09:34:37.981Z,100691.53
2018-06-01T09:37:05.456Z,100689.80
2018-06-01T09:39:32.927Z,100690.00
2018-06-01T09:42:00.388Z,100686.70
2018-06-01T09:44:27.911Z,100689.56
2018-06-01T09:46:55.375Z,100685.27
2018-06-01T09:49:22.843Z,100686.81
2018-06-01T09:51:50.315Z,100687.61
2018-06-01T09:54:17.784Z,100688.01
2018-06-01T09:56:45.262Z,100686.78
2018-06-01T09:59:12.731Z,100695.78
2018-06-01T10:01:40.200Z,100687.45
2018-06-01T10:04:07.674Z,100688.09
2018-06-01T10:06:35.160Z,100687.38
2018-06-01T10:09:02.615Z,100690.02
2018-06-01T10:11:30.106Z,100685.94
2018-06-01T10:13:57.576Z,100687.76
2018-06-01T10:16:25.043Z,100691.80
2018-06-01T10:18:52.545Z,100682.15
2018-06-01T10:21:20.020Z,100692.05
2018-06-01T10:23:47.489Z,100696.45
2018-06-01T10:26:14.966Z,100690.34
2018-06-01T10:28:42.440Z,100684.33
2018-06-01T10:31:09.923Z,100690.63
2018-06-01T10:33:37.388Z,100680.98
2018-06-01T10:36:04.887Z,100681.60
2018-06-01T10:38:32.384Z,100677.06
2018-06-01T10:40:59.856Z,100665.57
2018-06-01T10:43:27.335Z,100674.00
2018-06-01T10:45:54.820Z,100675.44
2018-06-01T10:48:22.282Z,100670.30
2018-06-01T10:50:49.878Z,100667.94
2018-06-01T10:53:17.378Z,100667.75
2018-06-01T10:55:44.844Z,100673.64
2018-06-01T10:58:12.328Z,100669.12
2018-06-01T11:00:39.935Z,100669.84
2018-06-01T11:03:07.457Z,100670.52
2018-06-01T11:05:34.938Z,100671.61
2018-06-01T11:08:02.407Z,100666.59
2018-06-01T11:10:29.883Z,100673.13
2018-06-01T11:12:57.365Z,100675.34
2018-06-01T11:15:24.843Z,100674.75
2018-06-01T11:17:52.315Z,100675.97
2018-06-01T11:20:19.779Z,100675.56
2018-06-01T11:22:47.263Z,100673.26
2018-06-01T11:25:14.752Z,100666.52
2018-06-01T11:27:42.276Z,100664.37
2018-06-01T11:30:09.745Z,100674.53
2018-06-01T11:32:37.246Z,100673.34
2018-06-01T11:35:04.724Z,100667.86
2018-06-01T11:37:32.194Z,100670.48
2018-06-01T11:39:59.669Z,100671.61
2018-06-01T11:42:27.144Z,100673.70
2018-06-01T11:44:54.617Z,100666.86
2018-06-01T11:47:23.803Z,100666.32
2018-06-01T11:49:52.394Z,100670.30
2018-06-01T11:52:19.906Z,100668.80
2018-06-01T11:54:47.427Z,100672.87
2018-06-01T11:57:16.296Z,100666.98
2018-06-01T11:59:43.787Z,100659.62
2018-06-01T12:02:11.290Z,100660.70
2018-06-01T12:04:38.853Z,100663.52
2018-06-01T12:07:07.786Z,100659.29
2018-06-01T12:09:35.372Z,100651.84
2018-06-01T12:12:03.909Z,100660.57
2018-06-01T12:14:33.044Z,100656.48
2018-06-01T12:17:02.247Z,100664.14
2018-06-01T12:19:31.231Z,100669.06
2018-06-01T12:21:59.084Z,100665.75
2018-06-01T12:24:27.211Z,100662.32
2018-06-01T12:26:54.839Z,100655.94
2018-06-01T12:29:22.347Z,100664.55
2018-06-01T12:31:49.870Z,100663.25
2018-06-01T12:34:22.443Z,100667.53
2018-06-01T12:36:50.171Z,100664.88
2018-06-01T12:39:17.671Z,100665.74
2018-06-01T12:41:45.524Z,100666.30
2018-06-01T12:44:13.024Z,100670.27
2018-06-01T12:46:40.519Z,100670.68
2018-06-01T12:49:08.011Z,100672.20
2018-06-01T12:51:35.620Z,100664.80
2018-06-01T12:54:04.169Z,100663.45
2018-06-01T12:56:32.062Z,100659.20
2018-06-01T12:58:59.578Z,100668.33
2018-06-01T13:01:27.560Z,100660.84
2018-06-01T13:03:55.286Z,100672.70
2018-06-01T13:06:24.103Z,100671.51
2018-06-01T13:08:51.712Z,100656.19
2018-06-01T13:11:20.033Z,100663.58
2018-06-01T13:13:47.581Z,100658.52
2018-06-01T13:16:15.117Z,100652.50
2018-06-01T13:18:44.974Z,100653.87
2018-06-01T13:21:13.963Z,100649.22
2018-06-01T13:23:43.018Z,100645.55
2018-06-01T13:26:12.540Z,100642.95
2018-06-01T13:28:40.067Z,100639.30
2018-06-01T13:31:08.251Z,100639.21
2018-06-01T13:33:37.477Z,100626.42
2018-06-01T13:36:06.030Z,100626.00
2018-06-01T13:38:33.789Z,100632.61
2018-06-01T13:41:08.066Z,100633.67
2018-06-01T13:43:36.332Z,100637.16
2018-06-01T13:46:04.775Z,100632.59
2018-06-01T13:48:32.503Z,100629.43
2018-06-01T13:51:01.201Z,100636.08
2018-06-01T13:53:29.877Z,100627.66
2018-06-01T13:55:58.208Z,100636.17
2018-06-01T13:58:29.302Z,100643.48
2018-06-01T14:00:57.451Z,100641.91
2018-06-01T14:03:26.722Z,100648.30
2018-06-01T14:05:55.469Z,100651.22
2018-06-01T14:08:23.628Z,100643.69
2018-06-01T14:10:52.396Z,100650.36
2018-06-01T14:13:22.547Z,100643.91
2018-06-01T14:15:50.101Z,100638.39
2018-06-01T14:18:18.030Z,100637.27
2018-06-01T14:20:48.449Z,100634.45
2018-06-01T14:23:16.742Z,100632.96
2018-06-01T14:25:46.344Z,100627.48
2018-06-01T14:28:13.961Z,100637.05
2018-06-01T14:30:42.282Z,100626.16
2018-06-01T14:33:09.796Z,100625.21
2018-06-01T14:35:37.395Z,100632.63
2018-06-01T14:38:10.147Z,100631.27
2018-06-01T14:40:39.691Z,100636.97
2018-06-01T14:43:07.128Z,100633.33
2018-06-01T14:45:35.776Z,100628.80
2018-06-01T14:48:05.701Z,100623.05
2018-06-01T14:50:33.207Z,100616.76
2018-06-01T14:53:04.119Z,100616.92
2018-06-01T14:55:32.133Z,100624.28
2018-06-01T14:58:01.536Z,100623.59
2018-06-01T15:00:30.565Z,100619.58
2018-06-01T15:02:58.866Z,100621.78
2018-06-01T15:05:28.735Z,100624.16
2018-06-01T15:07:58.774Z,100626.91
2018-06-01T15:10:27.822Z,100629.18
2018-06-01T15:12:55.845Z,100630.39
2018-06-01T15:15:24.027Z,100637.00
2018-06-01T15:17:52.318Z,100639.17
2018-06-01T15:20:19.941Z,100640.50
2018-06-01T15:22:47.557Z,100644.64
2018-06-01T15:25:16.821Z,100637.52
2018-06-01T15:27:44.360Z,100637.89
2018-06-01T15:30:11.917Z,100631.66
2018-06-01T15:32:39.430Z,100634.30
2018-06-01T15:35:06.915Z,100630.58
2018-06-01T15:37:34.396Z,100629.06
2018-06-01T15:40:01.868Z,100628.57
2018-06-01T15:42:29.347Z,100627.64
2018-06-01T15:44:56.826Z,100630.27
2018-06-01T15:47:24.346Z,100632.42
2018-06-01T15:49:51.810Z,100637.19
2018-06-01T15:52:20.089Z,100640.33
2018-06-01T15:54:47.559Z,100647.09
2018-06-01T15:57:15.052Z,100640.20
2018-06-01T15:59:42.532Z,100632.30
2018-06-01T16:02:10.003Z,100631.25
2018-06-01T16:04:37.493Z,100624.83
2018-06-01T16:07:04.961Z,100623.47
2018-06-01T16:09:32.435Z,100622.02
2018-06-01T16:11:59.910Z,100622.92
2018-06-01T16:14:27.396Z,100628.04
2018-06-01T16:16:54.860Z,100624.95
2018-06-01T16:19:22.348Z,100627.40
2018-06-01T16:21:49.839Z,100633.52
2018-06-01T16:24:17.320Z,100630.55
2018-06-01T16:26:44.792Z,100631.92
2018-06-01T16:29:12.284Z,100637.88
2018-06-01T16:31:39.764Z,100636.13
2018-06-01T16:34:07.235Z,100641.17
2018-06-01T16:36:34.737Z,100651.08
2018-06-01T16:39:02.245Z,100644.19
2018-06-01T16:41:29.731Z,100651.16
2018-06-01T16:43:57.264Z,100645.49
2018-06-01T16:46:24.731Z,100643.28
2018-06-01T16:48:52.424Z,100639.31
2018-06-01T16:51:20.016Z,100641.39
2018-06-01T16:53:47.521Z,100639.81
2018-06-01T16:56:14.999Z,100644.66
2018-06-01T16:58:42.560Z,100640.36
2018-06-01T17:01:14.249Z,100644.80
2018-06-01T17:03:42.142Z,100645.09
2018-06-01T17:06:09.628Z,100643.11
2018-06-01T17:08:37.152Z,100640.28
2018-06-01T17:11:04.668Z,100643.22
2018-06-01T17:13:33.798Z,100647.68
2018-06-01T17:16:01.284Z,100648.87
2018-06-01T17:18:28.962Z,100657.27
2018-06-01T17:20:56.489Z,100653.86
2018-06-01T17:23:23.978Z,100654.25
2018-06-01T17:25:51.479Z,100660.78
2018-06-01T17:28:18.974Z,100649.29
2018-06-01T17:30:46.484Z,100655.41
2018-06-01T17:33:13.969Z,100661.22
2018-06-01T17:35:41.548Z,100661.67
2018-06-01T17:38:09.094Z,100660.45
2018-06-01T17:40:36.583Z,100666.00
2018-06-01T17:43:04.104Z,100665.44
2018-06-01T17:45:31.623Z,100661.64
2018-06-01T17:47:59.964Z,100648.17
2018-06-01T17:50:27.451Z,100655.89
2018-06-01T17:52:55.051Z,100659.89
2018-06-01T17:55:22.542Z,100671.16
2018-06-01T17:57:50.072Z,100678.50
2018-06-01T18:00:17.657Z,100680.41
2018-06-01T18:02:45.301Z,100677.99
2018-06-01T18:05:12.804Z,100681.19
2018-06-01T18:07:40.267Z,100687.60
2018-06-01T18:10:07.748Z,100695.54
2018-06-01T18:12:35.211Z,100688.84
2018-06-01T18:15:02.693Z,100691.16
2018-06-01T18:17:30.173Z,100694.56
2018-06-01T18:19:57.666Z,100698.00
2018-06-01T18:22:25.181Z,100695.66
2018-06-01T18:24:52.621Z,100697.45
2018-06-01T18:27:20.116Z,100698.77
2018-06-01T18:29:47.606Z,100705.46
2018-06-01T18:32:15.073Z,100700.32
2018-06-01T18:34:44.177Z,100707.42
2018-06-01T18:37:11.639Z,100703.34
2018-06-01T18:39:39.489Z,100709.03
2018-06-01T18:42:07.024Z,100718.52
2018-06-01T18:44:34.542Z,100723.39
2018-06-01T18:47:02.011Z,100716.16
2018-06-01T18:49:29.575Z,100717.01
2018-06-01T18:51:57.011Z,100713.22
2018-06-01T18:54:24.510Z,100715.84
2018-06-01T18:56:54.171Z,100709.27
2018-06-01T18:59:21.677Z,100717.48
2018-06-01T19:01:49.768Z,100723.16
2018-06-01T19:04:17.306Z,100721.13
2018-06-01T19:06:44.799Z,100718.83
2018-06-01T19:09:12.368Z,100719.22
2018-06-01T19:11:39.952Z,100718.52
2018-06-01T19:14:08.193Z,100719.26
2018-06-01T19:16:35.764Z,100726.88
2018-06-01T19:19:04.045Z,100729.66
2018-06-01T19:21:32.456Z,100731.64
2018-06-01T19:24:00.911Z,100731.50
2018-06-01T19:26:28.437Z,100736.17
2018-06-01T19:28:55.969Z,100736.66
2018-06-01T19:31:24.171Z,100731.13
2018-06-01T19:33:51.678Z,100737.82
2018-06-01T19:36:19.883Z,100744.69
2018-06-01T19:38:47.990Z,100747.48
2018-06-01T19:41:16.077Z,100751.03
2018-06-01T19:43:44.416Z,100754.55
2018-06-01T19:46:12.078Z,100760.34
2018-06-01T19:48:39.607Z,100761.36
2018-06-01T19:51:07.383Z,100761.53
2018-06-01T19:53:34.991Z,100764.22
2018-06-01T19:56:02.455Z,100759.84
2018-06-01T19:58:30.025Z,100773.73
2018-06-01T20:00:57.529Z,100772.88
2018-06-01T20:03:25.027Z,100780.42
2018-06-01T20:05:52.506Z,100788.33
2018-06-01T20:08:20.152Z,100788.74
2018-06-01T20:10:47.697Z,100784.12
2018-06-01T20:13:15.306Z,100793.02
2018-06-01T20:15:42.832Z,100797.30
2018-06-01T20:18:10.334Z,100801.12
2018-06-01T20:20:37.843Z,100796.55
2018-06-01T20:23:05.449Z,100803.66
2018-06-01T20:25:32.957Z,100803.70
2018-06-01T20:28:00.437Z,100807.23
2018-06-01T20:30:27.948Z,100816.00
2018-06-01T20:32:55.491Z,100814.48
2018-06-01T20:35:23.007Z,100815.52
2018-06-01T20:37:50.516Z,100819.43
2018-06-01T20:40:18.006Z,100823.09
2018-06-01T20:42:45.508Z,100824.41
2018-06-01T20:45:13.020Z,100825.77
2018-06-01T20:47:40.524Z,100826.66
2018-06-01T20:50:08.083Z,100831.22
2018-06-01T20:52:35.623Z,100830.35
2018-06-01T20:55:03.177Z,100833.47
2018-06-01T20:57:30.704Z,100832.70
2018-06-01T20:59:58.216Z,100832.65
2018-06-01T21:02:26.499Z,100833.12
2018-06-01T21:04:54.915Z,100830.67
2018-06-01T21:07:22.442Z,100828.59
2018-06-01T21:09:49.944Z,100828.47
2018-06-01T21:12:17.457Z,100825.28
2018-06-01T21:14:45.888Z,100826.17
2018-06-01T21:17:13.402Z,100831.37
2018-06-01T21:19:40.949Z,100832.59
2018-06-01T21:22:08.439Z,100834.09
2018-06-01T21:24:36.716Z,100835.70
2018-06-01T21:27:04.264Z,100831.44
2018-06-01T21:29:32.124Z,100840.66
2018-06-01T21:31:59.663Z,100838.53
2018-06-01T21:34:27.168Z,100837.83
2018-06-01T21:36:55.480Z,100835.76
2018-06-01T21:39:23.398Z,100829.70
2018-06-01T21:41:50.888Z,100830.33
2018-06-01T21:44:18.529Z,100826.34
2018-06-01T21:46:46.014Z,100827.78
2018-06-01T21:49:13.529Z,100834.73
2018-06-01T21:51:41.017Z,100831.93
2018-06-01T21:54:08.512Z,100832.45
2018-06-01T21:56:35.990Z,100835.77
2018-06-01T21:59:03.499Z,100838.71
2018-06-01T22:01:30.991Z,100830.72
2018-06-01T22:03:58.488Z,100836.27
2018-06-01T22:06:25.965Z,100831.44
2018-06-01T22:08:53.667Z,100837.59
2018-06-01T22:11:21.250Z,100834.03
2018-06-01T22:13:48.732Z,100835.59
2018-06-01T22:16:16.276Z,100834.88
2018-06-01T22:18:43.695Z,100833.46
2018-06-01T22:21:11.198Z,100833.78
2018-06-01T22:23:38.651Z,100838.38
2018-06-01T22:26:06.124Z,100841.80
2018-06-01T22:28:33.583Z,100845.95
2018-06-01T22:31:02.494Z,100846.81
2018-06-01T22:33:29.995Z,100857.69
2018-06-01T22:35:57.508Z,100861.52
2018-06-01T22:38:25.725Z,100852.34
2018-06-01T22:40:53.213Z,100854.44
2018-06-01T22:43:21.423Z,100850.84
2018-06-01T22:45:49.231Z,100859.16
2018-06-01T22:48:16.781Z,100850.44
2018-06-01T22:50:44.502Z,100850.79
2018-06-01T22:53:12.405Z,100852.73
2018-06-01T22:55:40.001Z,100849.57
2018-06-01T22:58:07.508Z,100849.33
2018-06-01T23:00:41.845Z,100855.36
2018-06-01T23:03:09.771Z,100852.81
2018-06-01T23:05:37.308Z,100852.11
2018-06-01T23:08:05.238Z,100844.78
2018-06-01T23:10:32.782Z,100850.95
2018-06-01T23:13:00.326Z,100846.78
2018-06-01T23:15:27.872Z,100846.63
2018-06-01T23:17:55.854Z,100844.77
2018-06-01T23:20:23.467Z,100855.07
2018-06-01T23:22:51.324Z,100851.35
2018-06-01T23:25:18.843Z,100852.11
2018-06-01T23:27:46.648Z,100860.97
2018-06-01T23:30:14.189Z,100859.70
2018-06-01T23:32:43.235Z,100853.14
2018-06-01T23:35:11.762Z,100860.17
2018-06-01T23:37:39.334Z,100852.77
2018-06-01T23:40:06.855Z,100852.58
2018-06-01T23:42:34.348Z,100852.11
2018-06-01T23:45:01.921Z,100847.19
2018-06-01T23:47:29.518Z,100846.23
2018-06-01T23:49:57.046Z,100838.45
2018-06-01T23:52:25.563Z,100838.10
2018-06-01T23:54:53.404Z,100835.16
2018-06-01T23:57:20.961Z,100828.30
2018-06-01T23:59:48.466Z,100826.61
